Vines Loop, Louisiana
Current Conditions -  °F | °C
As of 9:56 AM on Friday 19 Dec 2014 (Local Time) from KAQV Reporting Station
Light Rain Light Rain  
Wind Chill: 12°   Ceiling: 300
Heat Index: 12°   Visibility: 6mi
Dew Point: 11°   Wind: 3mph
Humidity: 93%   Direction: NA
Pressure: 30.12"   Gusts: NA
Location:  31.6945°N, 93.716°W
Report Text: KAQV 191556Z AUTO VRB03KT 6SM -RA BR OVC003 12/11 A3012 RMK AO2 SLP199 T01170106 PNO $
Loading
Personal Weather Stations






























Interactive Weather Map New forecast layout! Learn more

10-Day Weather Forecast

Advertisements
Track Severe Weather on mobile